createdAt,value
2018-05-04T00:00:01.789Z,2.40
2018-05-04T00:02:29.183Z,2.67
2018-05-04T00:04:56.683Z,3.20
2018-05-04T00:07:24.078Z,3.10
2018-05-04T00:09:52.376Z,2.80
2018-05-04T00:12:19.931Z,3.40
2018-05-04T00:14:47.331Z,3.60
2018-05-04T00:17:14.724Z,2.97
2018-05-04T00:19:42.105Z,2.40
2018-05-04T00:22:09.542Z,3.10
2018-05-04T00:24:36.910Z,2.80
2018-05-04T00:27:04.307Z,3.00
2018-05-04T00:29:31.754Z,2.90
2018-05-04T00:31:59.135Z,3.50
2018-05-04T00:34:26.530Z,3.23
2018-05-04T00:36:53.944Z,3.00
2018-05-04T00:39:21.335Z,3.00
2018-05-04T00:41:48.727Z,2.83
2018-05-04T00:44:16.121Z,3.03
2018-05-04T00:46:43.504Z,3.00
2018-05-04T00:49:10.913Z,3.00
2018-05-04T00:51:38.317Z,3.43
2018-05-04T00:54:17.532Z,3.03
2018-05-04T00:56:44.921Z,3.33
2018-05-04T00:59:12.313Z,3.27
2018-05-04T01:01:39.720Z,2.93
2018-05-04T01:04:07.106Z,3.40
2018-05-04T01:06:34.505Z,3.73
2018-05-04T01:09:01.888Z,3.63
2018-05-04T01:11:29.262Z,3.60
2018-05-04T01:13:56.656Z,3.60
2018-05-04T01:16:24.053Z,3.50
2018-05-04T01:18:51.490Z,3.50
2018-05-04T01:21:19.731Z,3.33
2018-05-04T01:23:47.138Z,2.90
2018-05-04T01:26:14.515Z,3.10
2018-05-04T01:28:41.928Z,3.20
2018-05-04T01:31:09.332Z,3.30
2018-05-04T01:33:36.736Z,3.07
2018-05-04T01:36:04.169Z,3.30
2018-05-04T01:38:31.632Z,3.20
2018-05-04T01:40:59.020Z,3.13
2018-05-04T01:43:26.396Z,3.13
2018-05-04T01:45:53.801Z,3.13
2018-05-04T01:48:21.291Z,3.03
2018-05-04T01:50:48.668Z,3.13
2018-05-04T01:53:16.076Z,3.50
2018-05-04T01:55:43.455Z,3.53
2018-05-04T01:58:10.849Z,3.00
2018-05-04T02:00:38.412Z,3.17
2018-05-04T02:03:05.816Z,3.50
2018-05-04T02:05:33.245Z,3.30
2018-05-04T02:08:00.649Z,3.40
2018-05-04T02:10:28.031Z,3.40
2018-05-04T02:12:55.435Z,2.83
2018-05-04T02:15:22.913Z,3.43
2018-05-04T02:17:50.318Z,3.50
2018-05-04T02:20:19.344Z,3.07
2018-05-04T02:22:46.749Z,3.67
2018-05-04T02:25:14.146Z,3.40
2018-05-04T02:27:41.539Z,3.20
2018-05-04T02:30:08.929Z,3.17
2018-05-04T02:32:36.343Z,2.60
2018-05-04T02:35:03.737Z,3.00
2018-05-04T02:37:31.157Z,3.43
2018-05-04T02:39:58.552Z,3.00
2018-05-04T02:42:25.987Z,3.37
2018-05-04T02:44:53.382Z,3.70
2018-05-04T02:47:20.760Z,3.13
2018-05-04T02:49:48.173Z,3.30
2018-05-04T02:52:15.576Z,3.60
2018-05-04T02:54:42.976Z,3.53
2018-05-04T02:57:10.414Z,2.63
2018-05-04T02:59:37.819Z,3.13
2018-05-04T03:02:05.187Z,2.90
2018-05-04T03:04:32.912Z,3.10
2018-05-04T03:07:00.292Z,3.23
2018-05-04T03:09:27.704Z,3.50
2018-05-04T03:11:55.133Z,3.67
2018-05-04T03:14:22.780Z,3.00
2018-05-04T03:16:50.245Z,3.20
2018-05-04T03:19:17.656Z,3.60
2018-05-04T03:21:45.057Z,3.50
2018-05-04T03:24:12.477Z,3.10
2018-05-04T03:26:39.859Z,3.60
2018-05-04T03:29:07.247Z,3.40
2018-05-04T03:31:34.676Z,3.57
2018-05-04T03:34:02.071Z,3.73
2018-05-04T03:36:29.469Z,3.60
2018-05-04T03:38:56.847Z,3.27
2018-05-04T03:41:24.231Z,3.37
2018-05-04T03:43:51.625Z,3.07
2018-05-04T03:46:19.028Z,3.30
2018-05-04T03:48:46.424Z,3.77
2018-05-04T03:51:13.819Z,3.60
2018-05-04T03:53:41.232Z,2.93
2018-05-04T03:56:08.629Z,3.37
2018-05-04T03:58:47.881Z,3.40
2018-05-04T04:01:27.115Z,3.80
2018-05-04T04:04:04.165Z,3.47
2018-05-04T04:06:31.524Z,3.83
2018-05-04T04:08:58.911Z,3.83
2018-05-04T04:11:26.368Z,4.33
2018-05-04T04:13:53.760Z,3.90
2018-05-04T04:16:21.232Z,3.33
2018-05-04T04:18:48.567Z,3.50
2018-05-04T04:21:15.969Z,3.33
2018-05-04T04:23:43.363Z,3.33
2018-05-04T04:26:10.807Z,3.20
2018-05-04T04:28:38.196Z,3.20
2018-05-04T04:31:05.584Z,2.90
2018-05-04T04:33:32.987Z,3.53
2018-05-04T04:36:00.378Z,3.40
2018-05-04T04:38:27.751Z,3.07
2018-05-04T04:40:55.239Z,3.33
2018-05-04T04:43:22.624Z,3.70
2018-05-04T04:45:50.016Z,4.43
2018-05-04T04:48:17.391Z,2.87
2018-05-04T04:50:44.851Z,3.50
2018-05-04T04:53:12.255Z,3.57
2018-05-04T04:55:39.630Z,4.47
2018-05-04T04:58:07.019Z,3.60
2018-05-04T05:00:35.404Z,3.00
2018-05-04T05:03:02.839Z,3.87
2018-05-04T05:05:30.355Z,3.53
2018-05-04T05:07:57.757Z,3.27
2018-05-04T05:10:25.153Z,3.63
2018-05-04T05:12:52.531Z,3.10
2018-05-04T05:15:19.935Z,3.60
2018-05-04T05:17:47.327Z,3.20
2018-05-04T05:20:14.819Z,3.63
2018-05-04T05:22:42.215Z,3.77
2018-05-04T05:25:09.593Z,3.10
2018-05-04T05:27:36.970Z,3.40
2018-05-04T05:30:04.367Z,3.33
2018-05-04T05:32:32.399Z,3.53
2018-05-04T05:35:00.273Z,3.30
2018-05-04T05:37:27.643Z,3.23
2018-05-04T05:39:55.115Z,3.40
2018-05-04T05:42:22.627Z,3.70
2018-05-04T05:44:49.897Z,3.17
2018-05-04T05:47:17.289Z,3.07
2018-05-04T05:49:44.675Z,3.10
2018-05-04T05:52:12.795Z,3.13
2018-05-04T05:54:40.237Z,2.83
2018-05-04T05:57:07.699Z,3.03
2018-05-04T05:59:35.087Z,3.63
2018-05-04T06:02:02.476Z,2.93
2018-05-04T06:04:29.847Z,3.10
2018-05-04T06:06:57.240Z,3.03
2018-05-04T06:09:24.780Z,3.50
2018-05-04T06:11:52.084Z,3.47
2018-05-04T06:14:19.513Z,3.03
2018-05-04T06:16:47.044Z,2.93
2018-05-04T06:19:14.416Z,3.10
2018-05-04T06:21:41.807Z,2.80
2018-05-04T06:24:09.180Z,2.90
2018-05-04T06:26:36.612Z,3.00
2018-05-04T06:29:04.039Z,3.00
2018-05-04T06:31:31.425Z,3.00
2018-05-04T06:33:58.795Z,2.57
2018-05-04T06:36:26.523Z,3.63
2018-05-04T06:38:53.903Z,2.70
2018-05-04T06:41:21.310Z,3.50
2018-05-04T06:43:48.682Z,3.67
2018-05-04T06:46:16.090Z,3.53
2018-05-04T06:48:43.499Z,3.20
2018-05-04T06:51:10.938Z,3.17
2018-05-04T06:53:38.337Z,4.20
2018-05-04T06:56:05.785Z,4.67
2018-05-04T06:58:33.205Z,3.00
2018-05-04T07:01:00.588Z,3.17
2018-05-04T07:03:27.964Z,2.90
2018-05-04T07:05:55.362Z,3.00
2018-05-04T07:08:22.767Z,3.20
2018-05-04T07:10:50.311Z,3.23
2018-05-04T07:13:17.692Z,2.33
2018-05-04T07:15:45.091Z,3.00
2018-05-04T07:18:12.459Z,3.30
2018-05-04T07:20:39.932Z,2.80
2018-05-04T07:23:07.350Z,3.70
2018-05-04T07:25:34.748Z,3.40
2018-05-04T07:28:02.126Z,2.47
2018-05-04T07:30:29.806Z,3.10
2018-05-04T07:32:57.416Z,2.97
2018-05-04T07:35:24.810Z,2.70
2018-05-04T07:37:52.203Z,3.00
2018-05-04T07:40:19.611Z,2.60
2018-05-04T07:42:47.015Z,2.70
2018-05-04T07:45:14.506Z,3.27
2018-05-04T07:47:41.876Z,3.30
2018-05-04T07:50:09.280Z,2.87
2018-05-04T07:52:36.653Z,2.50
2018-05-04T07:55:04.039Z,3.30
2018-05-04T07:57:31.443Z,2.80
2018-05-04T07:59:58.830Z,3.03
2018-05-04T08:02:26.235Z,2.93
2018-05-04T08:04:53.661Z,2.93
2018-05-04T08:07:21.051Z,2.70
2018-05-04T08:09:48.513Z,2.83
2018-05-04T08:12:15.842Z,3.10
2018-05-04T08:14:43.547Z,3.47
2018-05-04T08:17:10.955Z,3.00
2018-05-04T08:19:38.371Z,3.00
2018-05-04T08:22:05.742Z,3.00
2018-05-04T08:24:33.175Z,3.23
2018-05-04T08:27:00.608Z,3.57
2018-05-04T08:29:27.989Z,2.97
2018-05-04T08:31:55.416Z,3.30
2018-05-04T08:34:22.782Z,3.40
2018-05-04T08:36:50.176Z,3.77
2018-05-04T08:39:17.551Z,3.60
2018-05-04T08:41:44.947Z,3.30
2018-05-04T08:44:12.316Z,3.20
2018-05-04T08:46:40.817Z,3.20
2018-05-04T08:49:08.263Z,3.43
2018-05-04T08:51:35.679Z,3.33
2018-05-04T08:54:03.072Z,3.77
2018-05-04T08:56:30.522Z,3.23
2018-05-04T08:58:57.927Z,3.60
2018-05-04T09:01:25.349Z,2.63
2018-05-04T09:03:52.729Z,2.97
2018-05-04T09:06:22.246Z,3.53
2018-05-04T09:08:50.595Z,3.17
2018-05-04T09:11:17.988Z,3.90
2018-05-04T09:13:45.461Z,3.30
2018-05-04T09:16:12.847Z,3.53
2018-05-04T09:18:40.308Z,3.83
2018-05-04T09:21:07.698Z,3.30
2018-05-04T09:23:35.082Z,3.57
2018-05-04T09:26:02.470Z,3.80
2018-05-04T09:28:30.026Z,3.37
2018-05-04T09:30:57.820Z,3.37
2018-05-04T09:33:25.350Z,3.00
2018-05-04T09:35:52.783Z,4.40
2018-05-04T09:38:20.160Z,4.40
2018-05-04T09:40:47.547Z,3.83
2018-05-04T09:43:14.932Z,3.17
2018-05-04T09:45:42.311Z,3.40
2018-05-04T09:48:09.721Z,3.13
2018-05-04T09:50:37.127Z,3.60
2018-05-04T09:53:04.525Z,3.47
2018-05-04T09:55:31.910Z,3.70
2018-05-04T09:57:59.307Z,3.93
2018-05-04T10:00:26.796Z,4.30
2018-05-04T10:02:54.205Z,4.03
2018-05-04T10:05:21.594Z,3.80
2018-05-04T10:07:49.147Z,3.47
2018-05-04T10:10:16.626Z,3.90
2018-05-04T10:12:44.032Z,3.90
2018-05-04T10:15:11.400Z,3.63
2018-05-04T10:17:38.798Z,4.20
2018-05-04T10:20:06.571Z,4.40
2018-05-04T10:22:33.996Z,3.83
2018-05-04T10:25:01.373Z,3.47
2018-05-04T10:27:28.762Z,4.00
2018-05-04T10:29:56.157Z,4.03
2018-05-04T10:32:23.530Z,3.50
2018-05-04T10:34:50.928Z,3.77
2018-05-04T10:37:18.318Z,3.10
2018-05-04T10:39:45.689Z,3.63
2018-05-04T10:42:13.242Z,4.03
2018-05-04T10:44:40.647Z,3.37
2018-05-04T10:47:08.045Z,3.87
2018-05-04T10:49:35.423Z,3.90
2018-05-04T10:52:02.903Z,3.50
2018-05-04T10:54:30.289Z,4.00
2018-05-04T10:56:57.699Z,3.80
2018-05-04T10:59:25.072Z,4.10
2018-05-04T11:01:52.495Z,3.50
2018-05-04T11:04:19.879Z,3.37
2018-05-04T11:06:47.287Z,3.90
2018-05-04T11:09:14.671Z,3.80
2018-05-04T11:11:42.042Z,3.90
2018-05-04T11:14:09.420Z,3.90
2018-05-04T11:16:36.842Z,4.10
2018-05-04T11:19:04.231Z,3.10
2018-05-04T11:21:31.651Z,3.80
2018-05-04T11:23:59.115Z,4.17
2018-05-04T11:26:26.505Z,4.23
2018-05-04T11:28:53.888Z,3.70
2018-05-04T11:31:21.285Z,3.67
2018-05-04T11:33:48.647Z,3.20
2018-05-04T11:36:16.039Z,3.93
2018-05-04T11:38:43.419Z,3.60
2018-05-04T11:41:10.798Z,3.97
2018-05-04T11:43:38.187Z,3.90
2018-05-04T11:46:05.592Z,3.63
2018-05-04T11:48:32.962Z,3.20
2018-05-04T11:51:00.493Z,3.40
2018-05-04T11:53:27.854Z,3.53
2018-05-04T11:55:55.259Z,3.27
2018-05-04T11:58:22.686Z,3.60
2018-05-04T12:00:50.056Z,3.93
2018-05-04T12:03:17.516Z,3.23
2018-05-04T12:05:44.933Z,3.77
2018-05-04T12:08:16.471Z,3.63
2018-05-04T12:10:43.971Z,4.03
2018-05-04T12:13:11.308Z,3.90
2018-05-04T12:15:38.744Z,3.70
2018-05-04T12:18:06.128Z,3.67
2018-05-04T12:20:34.392Z,3.63
2018-05-04T12:23:01.927Z,3.70
2018-05-04T12:25:29.406Z,3.33
2018-05-04T12:27:56.807Z,3.23
2018-05-04T12:30:24.309Z,3.33
2018-05-04T12:32:51.628Z,3.00
2018-05-04T12:35:19.033Z,3.20
2018-05-04T12:37:46.419Z,3.30
2018-05-04T12:40:14.242Z,3.20
2018-05-04T12:42:41.660Z,3.37
2018-05-04T12:45:09.123Z,3.97
2018-05-04T12:47:36.523Z,3.40
2018-05-04T12:50:04.059Z,2.77
2018-05-04T12:52:31.536Z,3.33
2018-05-04T12:54:59.000Z,2.70
2018-05-04T12:57:26.471Z,3.33
2018-05-04T12:59:53.898Z,2.83
2018-05-04T13:02:21.319Z,2.70
2018-05-04T13:04:48.965Z,2.63
2018-05-04T13:07:16.391Z,3.20
2018-05-04T13:09:43.836Z,3.00
2018-05-04T13:12:11.231Z,3.20
2018-05-04T13:14:38.616Z,2.90
2018-05-04T13:17:06.050Z,2.80
2018-05-04T13:19:33.453Z,2.60
2018-05-04T13:22:00.834Z,3.17
2018-05-04T13:24:28.220Z,2.77
2018-05-04T13:26:55.636Z,3.50
2018-05-04T13:29:23.037Z,2.73
2018-05-04T13:31:50.442Z,3.13
2018-05-04T13:34:17.837Z,2.87
2018-05-04T13:36:45.240Z,3.67
2018-05-04T13:39:12.684Z,3.93
2018-05-04T13:41:40.103Z,3.07
2018-05-04T13:44:07.671Z,3.10
2018-05-04T13:46:35.092Z,2.75
2018-05-04T13:49:02.474Z,2.60
2018-05-04T13:51:30.234Z,2.90
2018-05-04T13:53:57.814Z,2.97
2018-05-04T13:56:25.234Z,3.12
2018-05-04T13:58:52.823Z,2.10
2018-05-04T14:01:20.238Z,2.33
2018-05-04T14:03:49.613Z,2.67
2018-05-04T14:06:17.034Z,2.62
2018-05-04T14:08:44.432Z,2.60
2018-05-04T14:11:11.990Z,2.40
2018-05-04T14:13:39.408Z,2.85
2018-05-04T14:16:08.041Z,2.40
2018-05-04T14:18:35.487Z,2.20
2018-05-04T14:21:02.901Z,2.35
2018-05-04T14:23:30.315Z,2.40
2018-05-04T14:25:57.733Z,2.60
2018-05-04T14:28:25.203Z,2.30
2018-05-04T14:30:52.650Z,2.10
2018-05-04T14:33:20.311Z,2.80
2018-05-04T14:35:47.796Z,2.80
2018-05-04T14:38:15.938Z,2.35
2018-05-04T14:40:44.191Z,2.37
2018-05-04T14:43:11.969Z,2.40
2018-05-04T14:45:39.355Z,2.10
2018-05-04T14:48:06.758Z,2.20
2018-05-04T14:50:34.147Z,2.35
2018-05-04T14:53:02.907Z,2.58
2018-05-04T14:55:30.938Z,2.10
2018-05-04T14:57:58.603Z,2.35
2018-05-04T15:00:25.984Z,2.20
2018-05-04T15:02:53.486Z,2.30
2018-05-04T15:05:20.972Z,2.17
2018-05-04T15:07:49.156Z,2.17
2018-05-04T15:10:16.675Z,2.20
2018-05-04T15:12:44.077Z,2.50
2018-05-04T15:15:11.490Z,2.08
2018-05-04T15:17:39.021Z,1.92
2018-05-04T15:20:06.440Z,2.42
2018-05-04T15:22:33.863Z,1.87
2018-05-04T15:25:01.375Z,2.10
2018-05-04T15:27:28.677Z,2.30
2018-05-04T15:29:56.204Z,1.80
2018-05-04T15:32:23.831Z,1.83
2018-05-04T15:34:52.171Z,2.60
2018-05-04T15:37:19.564Z,4.43
2018-05-04T15:39:46.951Z,2.30
2018-05-04T15:42:14.334Z,1.92
2018-05-04T15:44:41.724Z,2.03
2018-05-04T15:47:09.144Z,2.00
2018-05-04T15:49:36.601Z,2.00
2018-05-04T15:52:04.449Z,2.07
2018-05-04T15:54:31.931Z,1.80
2018-05-04T15:57:00.477Z,2.00
2018-05-04T15:59:29.220Z,2.40
2018-05-04T16:01:56.745Z,2.37
2018-05-04T16:04:26.094Z,2.60
2018-05-04T16:06:53.501Z,2.43
2018-05-04T16:09:21.388Z,1.90
2018-05-04T16:11:50.074Z,2.30
2018-05-04T16:14:18.272Z,2.43
2018-05-04T16:16:45.659Z,2.30
2018-05-04T16:19:13.081Z,2.30
2018-05-04T16:21:40.476Z,2.20
2018-05-04T16:24:07.872Z,2.10
2018-05-04T16:26:35.255Z,2.20
2018-05-04T16:29:02.669Z,2.27
2018-05-04T16:31:30.093Z,2.70
2018-05-04T16:33:57.504Z,3.90
2018-05-04T16:36:24.926Z,2.60
2018-05-04T16:38:52.307Z,2.60
2018-05-04T16:41:20.347Z,2.30
2018-05-04T16:43:47.731Z,2.33
2018-05-04T16:46:20.793Z,2.50
2018-05-04T16:48:53.707Z,2.77
2018-05-04T16:51:21.088Z,2.10
2018-05-04T16:53:48.501Z,3.57
2018-05-04T16:56:15.874Z,2.90
2018-05-04T16:58:43.263Z,2.63
2018-05-04T17:01:10.937Z,3.03
2018-05-04T17:03:39.194Z,3.53
2018-05-04T17:06:06.575Z,3.70
2018-05-04T17:08:33.968Z,3.37
2018-05-04T17:11:01.367Z,3.00
2018-05-04T17:13:28.790Z,3.43
2018-05-04T17:15:56.211Z,3.47
2018-05-04T17:18:23.589Z,3.10
2018-05-04T17:20:51.939Z,3.40
2018-05-04T17:23:20.552Z,2.70
2018-05-04T17:25:48.408Z,2.73
2018-05-04T17:28:15.791Z,3.20
2018-05-04T17:30:46.636Z,2.83
2018-05-04T17:33:14.060Z,2.67
2018-05-04T17:35:43.166Z,2.80
2018-05-04T17:38:10.579Z,3.30
2018-05-04T17:40:38.016Z,2.63
2018-05-04T17:43:05.404Z,3.00
2018-05-04T17:45:32.792Z,3.03
2018-05-04T17:48:00.286Z,3.00
2018-05-04T17:50:27.677Z,2.77
2018-05-04T17:52:55.078Z,4.00
2018-05-04T17:55:22.487Z,2.93
2018-05-04T17:57:49.879Z,3.03
2018-05-04T18:00:17.265Z,3.20
2018-05-04T18:02:44.673Z,3.67
2018-05-04T18:05:12.047Z,3.33
2018-05-04T18:07:39.469Z,3.00
2018-05-04T18:10:06.839Z,3.23
2018-05-04T18:12:34.239Z,4.23
2018-05-04T18:15:01.716Z,3.77
2018-05-04T18:17:29.191Z,3.10
2018-05-04T18:19:56.510Z,3.03
2018-05-04T18:22:23.904Z,4.33
2018-05-04T18:24:51.292Z,3.50
2018-05-04T18:27:18.692Z,3.70
2018-05-04T18:29:46.085Z,3.80
2018-05-04T18:32:13.491Z,3.97
2018-05-04T18:34:40.979Z,3.63
2018-05-04T18:37:08.391Z,4.10
2018-05-04T18:39:35.790Z,3.40
2018-05-04T18:42:03.182Z,3.33
2018-05-04T18:44:30.575Z,4.00
2018-05-04T18:46:57.981Z,4.13
2018-05-04T18:49:25.419Z,4.30
2018-05-04T18:51:52.812Z,4.50
2018-05-04T18:54:20.218Z,4.07
2018-05-04T18:56:47.837Z,4.43
2018-05-04T18:59:15.211Z,4.20
2018-05-04T19:01:42.612Z,5.23
2018-05-04T19:04:10.003Z,3.70
2018-05-04T19:06:37.437Z,4.10
2018-05-04T19:09:04.848Z,4.80
2018-05-04T19:11:32.254Z,4.07
2018-05-04T19:13:59.660Z,4.60
2018-05-04T19:16:27.057Z,4.60
2018-05-04T19:18:54.477Z,5.33
2018-05-04T19:21:22.083Z,4.43
2018-05-04T19:23:49.490Z,4.40
2018-05-04T19:26:16.879Z,4.60
2018-05-04T19:28:44.556Z,4.70
2018-05-04T19:31:12.604Z,4.00
2018-05-04T19:33:39.999Z,4.33
2018-05-04T19:36:07.402Z,4.30
2018-05-04T19:38:34.851Z,4.63
2018-05-04T19:41:02.237Z,4.53
2018-05-04T19:43:29.651Z,4.10
2018-05-04T19:45:57.038Z,4.80
2018-05-04T19:48:24.569Z,5.53
2018-05-04T19:50:51.868Z,4.40
2018-05-04T19:53:19.278Z,4.30
2018-05-04T19:55:46.663Z,4.40
2018-05-04T19:58:14.114Z,4.50
2018-05-04T20:00:41.586Z,4.80
2018-05-04T20:03:08.986Z,4.10
2018-05-04T20:05:36.394Z,4.90
2018-05-04T20:08:03.761Z,4.10
2018-05-04T20:10:31.206Z,5.10
2018-05-04T20:12:58.656Z,4.97
2018-05-04T20:15:26.968Z,4.73
2018-05-04T20:17:54.357Z,5.00
2018-05-04T20:20:21.866Z,4.70
2018-05-04T20:22:49.236Z,4.40
2018-05-04T20:25:16.637Z,3.77
2018-05-04T20:27:44.032Z,4.90
2018-05-04T20:30:11.519Z,4.43
2018-05-04T20:32:38.931Z,4.90
2018-05-04T20:35:06.484Z,3.90
2018-05-04T20:37:33.908Z,4.60
2018-05-04T20:40:01.326Z,4.80
2018-05-04T20:42:28.739Z,4.00
2018-05-04T20:44:56.123Z,4.70
2018-05-04T20:47:23.485Z,4.60
2018-05-04T20:49:50.899Z,4.47
2018-05-04T20:52:18.276Z,4.77
2018-05-04T20:54:45.691Z,4.00
2018-05-04T20:57:13.106Z,4.23
2018-05-04T21:02:17.399Z,4.57
2018-05-04T21:04:44.816Z,4.13
2018-05-04T21:07:12.201Z,4.50
2018-05-04T21:09:39.607Z,4.17
2018-05-04T21:12:06.987Z,3.70
2018-05-04T21:14:34.382Z,4.10
2018-05-04T21:17:01.995Z,4.90
2018-05-04T21:19:29.446Z,4.10
2018-05-04T21:21:56.838Z,4.53
2018-05-04T21:24:24.780Z,4.50
2018-05-04T21:26:52.214Z,4.10
2018-05-04T21:29:19.595Z,4.27
2018-05-04T21:31:47.041Z,4.00
2018-05-04T21:34:14.427Z,4.70
2018-05-04T21:36:41.813Z,4.17
2018-05-04T21:39:09.227Z,3.77
2018-05-04T21:41:36.608Z,4.23
2018-05-04T21:44:04.869Z,3.67
2018-05-04T21:46:32.256Z,4.47
2018-05-04T21:48:59.646Z,3.93
2018-05-04T21:51:27.043Z,4.17
2018-05-04T21:53:54.451Z,4.90
2018-05-04T21:56:23.114Z,3.80
2018-05-04T21:58:50.503Z,4.17
2018-05-04T22:01:17.877Z,4.20
2018-05-04T22:03:45.328Z,3.83
2018-05-04T22:06:12.700Z,4.70
2018-05-04T22:08:40.100Z,3.80
2018-05-04T22:11:07.493Z,4.30
2018-05-04T22:13:34.852Z,3.30
2018-05-04T22:16:02.239Z,4.00
2018-05-04T22:18:29.634Z,4.00
2018-05-04T22:20:57.009Z,3.53
2018-05-04T22:23:24.388Z,3.93
2018-05-04T22:25:51.763Z,3.60
2018-05-04T22:28:19.146Z,4.10
2018-05-04T22:30:46.539Z,3.90
2018-05-04T22:33:13.911Z,3.60
2018-05-04T22:35:41.299Z,3.40
2018-05-04T22:38:08.678Z,3.70
2018-05-04T22:40:36.064Z,3.53
2018-05-04T22:43:03.439Z,3.77
2018-05-04T22:45:30.820Z,3.70
2018-05-04T22:47:58.202Z,3.87
2018-05-04T22:50:25.593Z,3.67
2018-05-04T22:52:52.964Z,3.50
2018-05-04T22:55:20.360Z,4.23
2018-05-04T22:57:47.739Z,3.53
2018-05-04T23:00:18.703Z,3.57
2018-05-04T23:02:46.071Z,3.87
2018-05-04T23:05:13.462Z,4.70
2018-05-04T23:07:40.836Z,3.93
2018-05-04T23:10:08.220Z,3.50
2018-05-04T23:12:35.599Z,3.50
2018-05-04T23:15:02.988Z,4.23
2018-05-04T23:17:30.370Z,3.03
2018-05-04T23:19:57.746Z,3.53
2018-05-04T23:22:28.925Z,3.47
2018-05-04T23:24:56.310Z,4.00
2018-05-04T23:27:23.682Z,3.20
2018-05-04T23:29:51.073Z,3.20
2018-05-04T23:32:18.443Z,3.63
2018-05-04T23:34:45.838Z,3.40
2018-05-04T23:37:13.226Z,3.53
2018-05-04T23:39:40.600Z,3.70
2018-05-04T23:42:07.983Z,4.20
2018-05-04T23:44:35.378Z,3.80
2018-05-04T23:47:02.753Z,3.60
2018-05-04T23:49:30.132Z,3.23
2018-05-04T23:51:57.517Z,4.10
2018-05-04T23:54:24.889Z,5.10
2018-05-04T23:56:52.271Z,4.40
2018-05-04T23:59:19.650Z,3.67
